sensor_id;sensor_type;location;lat;lon;timestamp;pressure;altitude;pressure_sealevel;temperature;humidity
40570;BME280;26270;34.428;-119.710;2023-02-26T05:03:20;101208.44;;;7.52;78.13
40570;BME280;26270;34.428;-119.710;2023-02-26T05:05:50;101211.14;;;7.45;77.76
40570;BME280;26270;34.428;-119.710;2023-02-26T05:08:18;101219.29;;;7.51;77.17
40570;BME280;26270;34.428;-119.710;2023-02-26T05:10:46;101220.51;;;7.56;76.34
40570;BME280;26270;34.428;-119.710;2023-02-26T05:13:14;101221.33;;;7.63;76.32
40570;BME280;26270;34.428;-119.710;2023-02-26T05:15:43;101226.74;;;7.61;76.56
40570;BME280;26270;34.428;-119.710;2023-02-26T05:18:11;101230.62;;;7.56;76.94
40570;BME280;26270;34.428;-119.710;2023-02-26T05:20:39;101236.97;;;7.50;76.83
40570;BME280;26270;34.428;-119.710;2023-02-26T05:23:12;101237.53;;;7.56;76.41
40570;BME280;26270;34.428;-119.710;2023-02-26T05:25:40;101237.75;;;7.53;76.54
40570;BME280;26270;34.428;-119.710;2023-02-26T05:28:09;101239.02;;;7.55;76.45
40570;BME280;26270;34.428;-119.710;2023-02-26T05:30:37;101238.24;;;7.43;76.43
40570;BME280;26270;34.428;-119.710;2023-02-26T05:33:04;101238.32;;;7.46;76.64
40570;BME280;26270;34.428;-119.710;2023-02-26T05:35:32;101244.97;;;7.63;76.76
40570;BME280;26270;34.428;-119.710;2023-02-26T05:38:01;101245.84;;;7.41;76.73
40570;BME280;26270;34.428;-119.710;2023-02-26T05:40:30;101246.58;;;7.44;76.63
40570;BME280;26270;34.428;-119.710;2023-02-26T05:42:58;101249.30;;;7.53;76.57
40570;BME280;26270;34.428;-119.710;2023-02-26T05:45:26;101249.81;;;7.50;76.94
40570;BME280;26270;34.428;-119.710;2023-02-26T05:47:54;101253.08;;;7.59;76.53
40570;BME280;26270;34.428;-119.710;2023-02-26T05:50:21;101253.14;;;7.55;76.93
40570;BME280;26270;34.428;-119.710;2023-02-26T05:52:49;101248.07;;;7.45;77.11
40570;BME280;26270;34.428;-119.710;2023-02-26T05:55:18;101249.53;;;7.52;76.92
40570;BME280;26270;34.428;-119.710;2023-02-26T05:57:47;101250.01;;;7.35;76.53
40570;BME280;26270;34.428;-119.710;2023-02-26T06:00:16;101250.11;;;7.50;76.71
40570;BME280;26270;34.428;-119.710;2023-02-26T06:02:44;101249.38;;;7.49;76.61
40570;BME280;26270;34.428;-119.710;2023-02-26T06:05:12;101249.35;;;7.32;77.02
40570;BME280;26270;34.428;-119.710;2023-02-26T06:07:40;101252.46;;;7.41;77.06
40570;BME280;26270;34.428;-119.710;2023-02-26T06:10:10;101253.74;;;7.36;76.86
40570;BME280;26270;34.428;-119.710;2023-02-26T06:12:39;101256.18;;;7.35;77.10
40570;BME280;26270;34.428;-119.710;2023-02-26T06:15:09;101256.49;;;7.44;77.08
40570;BME280;26270;34.428;-119.710;2023-02-26T06:17:38;101259.08;;;7.23;76.87
40570;BME280;26270;34.428;-119.710;2023-02-26T06:20:08;101257.99;;;7.11;77.50
40570;BME280;26270;34.428;-119.710;2023-02-26T06:22:36;101262.37;;;7.29;77.74
40570;BME280;26270;34.428;-119.710;2023-02-26T06:25:06;101258.83;;;7.21;77.55
40570;BME280;26270;34.428;-119.710;2023-02-26T06:27:34;101261.29;;;7.17;77.52
40570;BME280;26270;34.428;-119.710;2023-02-26T06:30:03;101265.69;;;7.18;77.57
40570;BME280;26270;34.428;-119.710;2023-02-26T06:32:31;101269.14;;;7.21;77.71
40570;BME280;26270;34.428;-119.710;2023-02-26T06:35:00;101265.72;;;7.21;77.35
40570;BME280;26270;34.428;-119.710;2023-02-26T06:37:28;101270.18;;;7.17;77.39
40570;BME280;26270;34.428;-119.710;2023-02-26T06:39:57;101279.97;;;7.13;77.41
40570;BME280;26270;34.428;-119.710;2023-02-26T06:42:25;101286.99;;;7.10;77.46
40570;BME280;26270;34.428;-119.710;2023-02-26T06:44:54;101293.18;;;6.94;77.73
40570;BME280;26270;34.428;-119.710;2023-02-26T06:47:23;101297.04;;;7.21;77.25
40570;BME280;26270;34.428;-119.710;2023-02-26T06:49:51;101296.66;;;7.13;77.08
40570;BME280;26270;34.428;-119.710;2023-02-26T06:52:20;101292.74;;;6.94;76.97
40570;BME280;26270;34.428;-119.710;2023-02-26T06:54:48;101288.34;;;7.05;77.16
40570;BME280;26270;34.428;-119.710;2023-02-26T06:57:16;101289.40;;;7.05;77.40
40570;BME280;26270;34.428;-119.710;2023-02-26T06:59:44;101290.73;;;6.88;77.10
40570;BME280;26270;34.428;-119.710;2023-02-26T07:02:16;101291.07;;;6.93;77.56
40570;BME280;26270;34.428;-119.710;2023-02-26T07:04:45;101286.05;;;6.86;77.79
40570;BME280;26270;34.428;-119.710;2023-02-26T07:07:14;101286.09;;;6.80;76.73
40570;BME280;26270;34.428;-119.710;2023-02-26T07:09:43;101286.74;;;6.88;77.37
40570;BME280;26270;34.428;-119.710;2023-02-26T07:12:12;101291.06;;;6.96;77.56
40570;BME280;26270;34.428;-119.710;2023-02-26T07:14:40;101292.67;;;6.89;77.48
40570;BME280;26270;34.428;-119.710;2023-02-26T07:17:09;101292.63;;;6.71;77.51
40570;BME280;26270;34.428;-119.710;2023-02-26T07:19:37;101283.43;;;6.66;77.61
40570;BME280;26270;34.428;-119.710;2023-02-26T07:22:05;101282.03;;;6.80;76.60
40570;BME280;26270;34.428;-119.710;2023-02-26T07:24:34;101274.40;;;6.76;76.81
40570;BME280;26270;34.428;-119.710;2023-02-26T07:27:02;101274.34;;;6.67;77.14
40570;BME280;26270;34.428;-119.710;2023-02-26T07:29:31;101270.85;;;6.66;77.02
40570;BME280;26270;34.428;-119.710;2023-02-26T07:31:58;101269.26;;;6.73;77.29
40570;BME280;26270;34.428;-119.710;2023-02-26T07:34:26;101270.75;;;6.78;76.78
40570;BME280;26270;34.428;-119.710;2023-02-26T07:36:54;101274.92;;;6.64;76.83
40570;BME280;26270;34.428;-119.710;2023-02-26T07:39:23;101280.69;;;6.59;76.99
40570;BME280;26270;34.428;-119.710;2023-02-26T07:41:50;101286.51;;;6.57;77.07
40570;BME280;26270;34.428;-119.710;2023-02-26T07:44:19;101289.80;;;6.73;77.10
40570;BME280;26270;34.428;-119.710;2023-02-26T07:46:47;101296.96;;;6.61;77.67
40570;BME280;26270;34.428;-119.710;2023-02-26T07:49:15;101303.11;;;6.68;77.36
40570;BME280;26270;34.428;-119.710;2023-02-26T07:51:44;101303.62;;;6.50;77.32
40570;BME280;26270;34.428;-119.710;2023-02-26T07:54:12;101305.78;;;6.55;77.20
40570;BME280;26270;34.428;-119.710;2023-02-26T07:56:41;101298.74;;;6.39;77.20
40570;BME280;26270;34.428;-119.710;2023-02-26T07:59:09;101291.87;;;6.42;77.58
40570;BME280;26270;34.428;-119.710;2023-02-26T08:01:38;101289.81;;;6.41;77.54
40570;BME280;26270;34.428;-119.710;2023-02-26T08:04:06;101288.32;;;6.43;77.02
40570;BME280;26270;34.428;-119.710;2023-02-26T08:06:34;101294.17;;;6.32;76.99
40570;BME280;26270;34.428;-119.710;2023-02-26T08:09:03;101290.27;;;6.37;77.44
40570;BME280;26270;34.428;-119.710;2023-02-26T08:11:32;101290.59;;;6.50;77.64
40570;BME280;26270;34.428;-119.710;2023-02-26T08:14:00;101293.57;;;6.31;77.04
40570;BME280;26270;34.428;-119.710;2023-02-26T08:16:29;101293.81;;;6.33;76.96
40570;BME280;26270;34.428;-119.710;2023-02-26T08:18:56;101288.54;;;6.57;77.19
40570;BME280;26270;34.428;-119.710;2023-02-26T08:21:25;101286.16;;;6.47;75.96
40570;BME280;26270;34.428;-119.710;2023-02-26T08:23:54;101286.02;;;6.37;75.91
40570;BME280;26270;34.428;-119.710;2023-02-26T08:26:22;101289.31;;;6.26;76.57
40570;BME280;26270;34.428;-119.710;2023-02-26T08:28:50;101290.39;;;6.37;77.17
40570;BME280;26270;34.428;-119.710;2023-02-26T08:31:18;101286.08;;;6.29;76.46
40570;BME280;26270;34.428;-119.710;2023-02-26T08:33:47;101278.37;;;6.29;76.35
40570;BME280;26270;34.428;-119.710;2023-02-26T08:36:15;101277.84;;;6.33;76.17
40570;BME280;26270;34.428;-119.710;2023-02-26T08:38:43;101272.66;;;6.21;76.18
40570;BME280;26270;34.428;-119.710;2023-02-26T08:41:12;101272.07;;;6.31;76.78
40570;BME280;26270;34.428;-119.710;2023-02-26T08:43:40;101273.96;;;6.16;76.55
40570;BME280;26270;34.428;-119.710;2023-02-26T08:46:09;101278.78;;;6.13;76.47
40570;BME280;26270;34.428;-119.710;2023-02-26T08:48:37;101284.50;;;6.20;76.38
40570;BME280;26270;34.428;-119.710;2023-02-26T08:51:06;101283.59;;;5.95;76.05
40570;BME280;26270;34.428;-119.710;2023-02-26T08:53:34;101281.95;;;5.76;77.09
40570;BME280;26270;34.428;-119.710;2023-02-26T08:56:02;101280.14;;;5.87;77.31
40570;BME280;26270;34.428;-119.710;2023-02-26T08:58:31;101291.91;;;5.86;77.46
40570;BME280;26270;34.428;-119.710;2023-02-26T09:00:58;101298.62;;;5.87;77.23
40570;BME280;26270;34.428;-119.710;2023-02-26T09:03:26;101298.91;;;6.15;76.99
40570;BME280;26270;34.428;-119.710;2023-02-26T09:05:54;101300.44;;;5.84;77.08
40570;BME280;26270;34.428;-119.710;2023-02-26T09:08:22;101299.26;;;5.97;77.36
40570;BME280;26270;34.428;-119.710;2023-02-26T09:10:51;101294.30;;;6.05;76.64
40570;BME280;26270;34.428;-119.710;2023-02-26T09:13:19;101294.11;;;5.80;76.48
40570;BME280;26270;34.428;-119.710;2023-02-26T09:15:49;101295.46;;;5.97;76.47
40570;BME280;26270;34.428;-119.710;2023-02-26T09:18:16;101291.84;;;6.06;76.73
40570;BME280;26270;34.428;-119.710;2023-02-26T09:20:44;101286.71;;;5.46;77.40
40570;BME280;26270;34.428;-119.710;2023-02-26T09:23:12;101290.95;;;5.51;76.49
40570;BME280;26270;34.428;-119.710;2023-02-26T09:25:41;101291.53;;;5.46;77.65
40570;BME280;26270;34.428;-119.710;2023-02-26T09:28:09;101293.63;;;5.69;77.09
40570;BME280;26270;34.428;-119.710;2023-02-26T09:30:37;101298.07;;;5.66;77.16
40570;BME280;26270;34.428;-119.710;2023-02-26T09:33:06;101303.61;;;5.76;77.53
40570;BME280;26270;34.428;-119.710;2023-02-26T09:35:34;101307.06;;;5.85;76.98
40570;BME280;26270;34.428;-119.710;2023-02-26T09:38:03;101305.63;;;6.00;77.13
40570;BME280;26270;34.428;-119.710;2023-02-26T09:40:41;101313.56;;;5.91;77.06
40570;BME280;26270;34.428;-119.710;2023-02-26T09:43:34;101318.88;;;5.95;77.28
40570;BME280;26270;34.428;-119.710;2023-02-26T09:46:18;101330.95;;;5.75;77.56
40570;BME280;26270;34.428;-119.710;2023-02-26T09:48:49;101333.25;;;5.79;77.49
40570;BME280;26270;34.428;-119.710;2023-02-26T09:51:21;101339.88;;;5.65;76.74
40570;BME280;26270;34.428;-119.710;2023-02-26T09:53:51;101335.18;;;5.84;77.76
40570;BME280;26270;34.428;-119.710;2023-02-26T09:56:23;101331.42;;;5.76;77.25
40570;BME280;26270;34.428;-119.710;2023-02-26T09:58:53;101329.28;;;5.71;77.95
40570;BME280;26270;34.428;-119.710;2023-02-26T10:01:28;101324.54;;;5.67;77.17
40570;BME280;26270;34.428;-119.710;2023-02-26T10:04:06;101323.88;;;5.60;76.88
40570;BME280;26270;34.428;-119.710;2023-02-26T10:06:46;101327.97;;;5.76;76.94
40570;BME280;26270;34.428;-119.710;2023-02-26T10:09:30;101335.79;;;5.75;77.61
40570;BME280;26270;34.428;-119.710;2023-02-26T10:12:06;101330.95;;;5.77;77.76
40570;BME280;26270;34.428;-119.710;2023-02-26T10:14:40;101322.12;;;5.75;77.75
40570;BME280;26270;34.428;-119.710;2023-02-26T10:17:18;101312.39;;;5.91;77.45
40570;BME280;26270;34.428;-119.710;2023-02-26T10:19:52;101304.25;;;5.51;78.79
40570;BME280;26270;34.428;-119.710;2023-02-26T10:22:30;101309.63;;;5.77;78.02
40570;BME280;26270;34.428;-119.710;2023-02-26T10:25:02;101314.39;;;5.72;78.57
40570;BME280;26270;34.428;-119.710;2023-02-26T10:27:47;101309.93;;;6.06;78.06
40570;BME280;26270;34.428;-119.710;2023-02-26T10:30:26;101306.05;;;5.67;77.97
40570;BME280;26270;34.428;-119.710;2023-02-26T10:33:05;101306.18;;;6.01;77.83
40570;BME280;26270;34.428;-119.710;2023-02-26T10:35:44;101311.57;;;6.09;77.93
40570;BME280;26270;34.428;-119.710;2023-02-26T10:38:18;101332.55;;;6.02;77.83
40570;BME280;26270;34.428;-119.710;2023-02-26T10:40:50;101331.83;;;5.98;78.23
40570;BME280;26270;34.428;-119.710;2023-02-26T10:43:23;101326.86;;;6.00;78.17
40570;BME280;26270;34.428;-119.710;2023-02-26T10:46:08;101340.92;;;5.83;78.05
40570;BME280;26270;34.428;-119.710;2023-02-26T10:48:50;101340.35;;;6.03;77.91
40570;BME280;26270;34.428;-119.710;2023-02-26T10:51:24;101324.01;;;6.19;78.20
40570;BME280;26270;34.428;-119.710;2023-02-26T10:53:57;101316.41;;;5.90;77.39
40570;BME280;26270;34.428;-119.710;2023-02-26T10:56:30;101324.25;;;6.02;77.62
40570;BME280;26270;34.428;-119.710;2023-02-26T10:58:59;101331.14;;;5.88;78.44
40570;BME280;26270;34.428;-119.710;2023-02-26T11:01:29;101327.88;;;6.17;78.13
40570;BME280;26270;34.428;-119.710;2023-02-26T11:04:00;101328.82;;;6.08;77.91
40570;BME280;26270;34.428;-119.710;2023-02-26T11:06:32;101318.59;;;5.96;77.46
40570;BME280;26270;34.428;-119.710;2023-02-26T11:09:02;101322.06;;;6.05;78.17
40570;BME280;26270;34.428;-119.710;2023-02-26T11:11:50;101322.72;;;6.20;77.92
40570;BME280;26270;34.428;-119.710;2023-02-26T11:14:19;101315.99;;;6.43;78.32
40570;BME280;26270;34.428;-119.710;2023-02-26T11:16:51;101319.05;;;6.42;77.96
40570;BME280;26270;34.428;-119.710;2023-02-26T11:19:24;101312.73;;;6.35;77.56
40570;BME280;26270;34.428;-119.710;2023-02-26T11:21:54;101307.93;;;6.31;77.71
40570;BME280;26270;34.428;-119.710;2023-02-26T11:24:29;101307.02;;;6.38;77.81
40570;BME280;26270;34.428;-119.710;2023-02-26T11:27:00;101312.69;;;6.41;77.61
40570;BME280;26270;34.428;-119.710;2023-02-26T11:29:35;101324.33;;;6.11;77.61
40570;BME280;26270;34.428;-119.710;2023-02-26T11:32:04;101329.38;;;6.03;78.09
40570;BME280;26270;34.428;-119.710;2023-02-26T11:34:33;101329.96;;;6.00;77.93
40570;BME280;26270;34.428;-119.710;2023-02-26T11:37:01;101329.18;;;5.65;77.14
40570;BME280;26270;34.428;-119.710;2023-02-26T11:39:34;101334.93;;;5.77;76.93
40570;BME280;26270;34.428;-119.710;2023-02-26T11:42:05;101345.89;;;5.79;77.11
40570;BME280;26270;34.428;-119.710;2023-02-26T11:44:38;101354.37;;;6.02;76.24
40570;BME280;26270;34.428;-119.710;2023-02-26T11:47:11;101368.23;;;5.98;76.63
40570;BME280;26270;34.428;-119.710;2023-02-26T11:49:43;101380.65;;;6.23;76.73
40570;BME280;26270;34.428;-119.710;2023-02-26T11:52:20;101385.55;;;6.14;75.65
40570;BME280;26270;34.428;-119.710;2023-02-26T11:54:53;101392.33;;;6.18;75.89
40570;BME280;26270;34.428;-119.710;2023-02-26T11:57:25;101407.40;;;6.17;76.72
40570;BME280;26270;34.428;-119.710;2023-02-26T11:59:56;101415.29;;;6.28;76.86
40570;BME280;26270;34.428;-119.710;2023-02-26T12:02:30;101417.06;;;6.22;77.01
40570;BME280;26270;34.428;-119.710;2023-02-26T12:05:01;101425.18;;;6.07;76.01
40570;BME280;26270;34.428;-119.710;2023-02-26T12:07:30;101420.98;;;6.39;76.21
40570;BME280;26270;34.428;-119.710;2023-02-26T12:09:59;101417.32;;;6.10;77.18
40570;BME280;26270;34.428;-119.710;2023-02-26T12:12:37;101409.28;;;6.18;76.62
40570;BME280;26270;34.428;-119.710;2023-02-26T12:15:16;101410.50;;;6.32;76.74
40570;BME280;26270;34.428;-119.710;2023-02-26T12:18:16;101409.64;;;6.28;76.85
40570;BME280;26270;34.428;-119.710;2023-02-26T12:20:54;101414.98;;;6.12;77.59
40570;BME280;26270;34.428;-119.710;2023-02-26T12:23:38;101419.45;;;6.32;76.38
40570;BME280;26270;34.428;-119.710;2023-02-26T12:26:24;101424.05;;;6.10;76.33
40570;BME280;26270;34.428;-119.710;2023-02-26T12:29:16;101429.65;;;6.01;77.08
40570;BME280;26270;34.428;-119.710;2023-02-26T12:32:01;101437.95;;;6.02;76.77
40570;BME280;26270;34.428;-119.710;2023-02-26T12:34:49;101440.33;;;6.11;76.99
40570;BME280;26270;34.428;-119.710;2023-02-26T12:37:36;101452.62;;;5.70;77.85
40570;BME280;26270;34.428;-119.710;2023-02-26T12:40:25;101446.84;;;5.85;77.48
40570;BME280;26270;34.428;-119.710;2023-02-26T12:43:03;101451.89;;;5.80;77.87
40570;BME280;26270;34.428;-119.710;2023-02-26T12:45:45;101461.49;;;5.83;77.79
40570;BME280;26270;34.428;-119.710;2023-02-26T12:48:31;101460.43;;;5.86;77.48
40570;BME280;26270;34.428;-119.710;2023-02-26T12:51:11;101461.29;;;5.91;77.37
40570;BME280;26270;34.428;-119.710;2023-02-26T12:54:05;101456.97;;;6.04;76.97
40570;BME280;26270;34.428;-119.710;2023-02-26T12:59:16;101443.68;;;6.05;77.18
40570;BME280;26270;34.428;-119.710;2023-02-26T13:02:03;101436.49;;;5.94;76.82
40570;BME280;26270;34.428;-119.710;2023-02-26T13:04:50;101438.16;;;6.08;77.08
40570;BME280;26270;34.428;-119.710;2023-02-26T13:07:41;101439.61;;;5.79;77.09
40570;BME280;26270;34.428;-119.710;2023-02-26T13:10:22;101436.78;;;5.42;77.06
40570;BME280;26270;34.428;-119.710;2023-02-26T13:13:00;101435.77;;;5.47;77.42
40570;BME280;26270;34.428;-119.710;2023-02-26T13:15:44;101433.64;;;5.54;77.29
40570;BME280;26270;34.428;-119.710;2023-02-26T13:18:21;101433.76;;;5.37;77.22
40570;BME280;26270;34.428;-119.710;2023-02-26T13:20:56;101433.21;;;5.73;77.85
40570;BME280;26270;34.428;-119.710;2023-02-26T13:23:30;101449.16;;;5.28;77.69
40570;BME280;26270;34.428;-119.710;2023-02-26T13:26:03;101459.28;;;5.52;77.26
40570;BME280;26270;34.428;-119.710;2023-02-26T13:28:39;101464.56;;;5.43;77.46
40570;BME280;26270;34.428;-119.710;2023-02-26T13:31:12;101466.11;;;5.48;77.41
40570;BME280;26270;34.428;-119.710;2023-02-26T13:33:42;101473.75;;;5.51;77.91
40570;BME280;26270;34.428;-119.710;2023-02-26T13:36:15;101480.63;;;5.53;77.98
40570;BME280;26270;34.428;-119.710;2023-02-26T13:38:54;101488.33;;;5.46;77.43
40570;BME280;26270;34.428;-119.710;2023-02-26T13:41:29;101487.05;;;5.31;77.32
40570;BME280;26270;34.428;-119.710;2023-02-26T13:44:16;101490.12;;;5.44;77.46
40570;BME280;26270;34.428;-119.710;2023-02-26T13:46:56;101487.42;;;5.51;77.70
40570;BME280;26270;34.428;-119.710;2023-02-26T13:49:35;101498.14;;;5.40;77.27
40570;BME280;26270;34.428;-119.710;2023-02-26T13:52:23;101502.67;;;5.16;77.25
40570;BME280;26270;34.428;-119.710;2023-02-26T13:54:52;101505.97;;;5.46;77.46
40570;BME280;26270;34.428;-119.710;2023-02-26T13:57:34;101509.49;;;5.47;78.63
40570;BME280;26270;34.428;-119.710;2023-02-26T14:00:14;101507.98;;;5.62;77.54
40570;BME280;26270;34.428;-119.710;2023-02-26T14:02:54;101509.16;;;5.70;77.02
40570;BME280;26270;34.428;-119.710;2023-02-26T14:06:07;101507.78;;;5.70;77.68
40570;BME280;26270;34.428;-119.710;2023-02-26T14:08:45;101503.04;;;5.73;77.64
40570;BME280;26270;34.428;-119.710;2023-02-26T14:11:57;101502.60;;;5.63;77.71
40570;BME280;26270;34.428;-119.710;2023-02-26T14:14:32;101504.48;;;5.61;77.58
40570;BME280;26270;34.428;-119.710;2023-02-26T14:18:20;101503.98;;;5.60;77.75
40570;BME280;26270;34.428;-119.710;2023-02-26T14:20:52;101501.43;;;5.68;78.03
40570;BME280;26270;34.428;-119.710;2023-02-26T14:23:56;101507.88;;;5.80;77.13
40570;BME280;26270;34.428;-119.710;2023-02-26T14:26:27;101506.74;;;5.63;77.49
40570;BME280;26270;34.428;-119.710;2023-02-26T14:29:11;101508.43;;;5.69;77.39
40570;BME280;26270;34.428;-119.710;2023-02-26T14:32:00;101511.38;;;5.31;77.92
40570;BME280;26270;34.428;-119.710;2023-02-26T14:34:34;101515.61;;;5.75;77.97
40570;BME280;26270;34.428;-119.710;2023-02-26T14:37:05;101521.03;;;5.57;77.17
40570;BME280;26270;34.428;-119.710;2023-02-26T14:39:38;101528.56;;;5.67;77.69
40570;BME280;26270;34.428;-119.710;2023-02-26T14:42:10;101533.11;;;5.61;77.52
40570;BME280;26270;34.428;-119.710;2023-02-26T14:44:41;101541.50;;;5.64;77.63
40570;BME280;26270;34.428;-119.710;2023-02-26T14:47:11;101542.55;;;5.75;78.13
40570;BME280;26270;34.428;-119.710;2023-02-26T14:49:42;101546.34;;;5.91;78.06
40570;BME280;26270;34.428;-119.710;2023-02-26T14:52:44;101553.35;;;5.82;77.75
40570;BME280;26270;34.428;-119.710;2023-02-26T14:55:44;101552.70;;;5.77;77.27
40570;BME280;26270;34.428;-119.710;2023-02-26T14:58:25;101558.11;;;5.71;77.42
40570;BME280;26270;34.428;-119.710;2023-02-26T15:01:04;101564.60;;;5.83;77.40
40570;BME280;26270;34.428;-119.710;2023-02-26T15:03:51;101576.41;;;6.02;77.45
40570;BME280;26270;34.428;-119.710;2023-02-26T15:06:34;101574.53;;;6.12;77.36
40570;BME280;26270;34.428;-119.710;2023-02-26T15:09:13;101574.55;;;6.17;77.18
40570;BME280;26270;34.428;-119.710;2023-02-26T15:12:00;101581.90;;;6.45;77.81
40570;BME280;26270;34.428;-119.710;2023-02-26T15:14:44;101591.36;;;6.43;78.21
40570;BME280;26270;34.428;-119.710;2023-02-26T15:17:28;101593.84;;;6.62;77.25
40570;BME280;26270;34.428;-119.710;2023-02-26T15:20:11;101597.29;;;6.57;76.23
40570;BME280;26270;34.428;-119.710;2023-02-26T15:22:59;101599.65;;;6.62;76.96
40570;BME280;26270;34.428;-119.710;2023-02-26T15:25:33;101600.02;;;6.76;76.10
40570;BME280;26270;34.428;-119.710;2023-02-26T15:28:03;101599.10;;;6.78;74.03
40570;BME280;26270;34.428;-119.710;2023-02-26T15:30:34;101601.26;;;6.88;73.33
40570;BME280;26270;34.428;-119.710;2023-02-26T15:33:09;101605.27;;;7.03;73.11
40570;BME280;26270;34.428;-119.710;2023-02-26T15:35:39;101609.91;;;7.13;72.04
40570;BME280;26270;34.428;-119.710;2023-02-26T15:38:10;101609.33;;;7.33;70.88
40570;BME280;26270;34.428;-119.710;2023-02-26T15:40:39;101617.61;;;7.33;70.97
40570;BME280;26270;34.428;-119.710;2023-02-26T15:43:09;101620.76;;;7.46;70.82
40570;BME280;26270;34.428;-119.710;2023-02-26T15:45:41;101628.01;;;7.69;69.40
40570;BME280;26270;34.428;-119.710;2023-02-26T15:48:14;101632.98;;;7.71;68.48
40570;BME280;26270;34.428;-119.710;2023-02-26T15:50:47;101634.28;;;7.74;68.24
40570;BME280;26270;34.428;-119.710;2023-02-26T15:53:20;101642.29;;;7.92;67.80
40570;BME280;26270;34.428;-119.710;2023-02-26T15:55:52;101642.74;;;8.12;67.83
40570;BME280;26270;34.428;-119.710;2023-02-26T15:58:32;101646.54;;;8.22;67.78
40570;BME280;26270;34.428;-119.710;2023-02-26T16:01:02;101644.58;;;8.31;68.23
40570;BME280;26270;34.428;-119.710;2023-02-26T16:03:32;101640.54;;;8.37;67.35
40570;BME280;26270;34.428;-119.710;2023-02-26T16:06:00;101637.50;;;8.37;67.35
40570;BME280;26270;34.428;-119.710;2023-02-26T16:08:29;101644.98;;;8.65;66.07
40570;BME280;26270;34.428;-119.710;2023-02-26T16:10:59;101651.00;;;8.62;66.58
40570;BME280;26270;34.428;-119.710;2023-02-26T16:13:31;101658.29;;;8.79;67.01
40570;BME280;26270;34.428;-119.710;2023-02-26T16:16:03;101661.60;;;8.61;66.49
40570;BME280;26270;34.428;-119.710;2023-02-26T16:18:32;101667.50;;;8.84;68.75
40570;BME280;26270;34.428;-119.710;2023-02-26T16:21:02;101672.81;;;8.83;66.61
40570;BME280;26270;34.428;-119.710;2023-02-26T16:23:42;101673.72;;;8.90;66.31
40570;BME280;26270;34.428;-119.710;2023-02-26T16:26:16;101674.57;;;8.97;66.29
40570;BME280;26270;34.428;-119.710;2023-02-26T16:28:53;101674.01;;;9.20;63.57
40570;BME280;26270;34.428;-119.710;2023-02-26T16:31:24;101675.87;;;9.09;63.27
40570;BME280;26270;34.428;-119.710;2023-02-26T16:33:57;101683.92;;;9.35;61.68
40570;BME280;26270;34.428;-119.710;2023-02-26T16:36:28;101678.66;;;9.35;61.38
40570;BME280;26270;34.428;-119.710;2023-02-26T16:39:01;101681.18;;;9.35;61.81
40570;BME280;26270;34.428;-119.710;2023-02-26T16:41:31;101680.71;;;9.50;59.54
40570;BME280;26270;34.428;-119.710;2023-02-26T16:44:03;101676.98;;;9.66;59.31
40570;BME280;26270;34.428;-119.710;2023-02-26T16:46:35;101674.75;;;9.72;61.01
40570;BME280;26270;34.428;-119.710;2023-02-26T16:49:08;101670.95;;;9.66;60.97
40570;BME280;26270;34.428;-119.710;2023-02-26T16:51:39;101670.91;;;9.83;59.63
40570;BME280;26270;34.428;-119.710;2023-02-26T16:54:14;101670.74;;;9.93;56.81
40570;BME280;26270;34.428;-119.710;2023-02-26T16:56:56;101673.09;;;9.99;55.57
40570;BME280;26270;34.428;-119.710;2023-02-26T16:59:27;101674.70;;;10.03;57.35
40570;BME280;26270;34.428;-119.710;2023-02-26T17:01:59;101678.41;;;9.88;57.51
40570;BME280;26270;34.428;-119.710;2023-02-26T17:04:31;101683.73;;;10.28;54.85
40570;BME280;26270;34.428;-119.710;2023-02-26T17:07:04;101683.61;;;10.30;54.24
40570;BME280;26270;34.428;-119.710;2023-02-26T17:09:37;101688.66;;;10.35;54.90
40570;BME280;26270;34.428;-119.710;2023-02-26T17:12:13;101690.88;;;10.50;54.88
40570;BME280;26270;34.428;-119.710;2023-02-26T17:14:45;101685.90;;;10.72;51.42
40570;BME280;26270;34.428;-119.710;2023-02-26T17:17:13;101683.55;;;10.64;52.95
40570;BME280;26270;34.428;-119.710;2023-02-26T17:19:42;101671.17;;;10.79;53.20
40570;BME280;26270;34.428;-119.710;2023-02-26T17:22:14;101665.48;;;10.78;53.08
40570;BME280;26270;34.428;-119.710;2023-02-26T17:24:43;101669.83;;;10.74;50.83
40570;BME280;26270;34.428;-119.710;2023-02-26T17:27:15;101680.19;;;10.78;53.80
40570;BME280;26270;34.428;-119.710;2023-02-26T17:29:47;101686.34;;;11.08;49.83
40570;BME280;26270;34.428;-119.710;2023-02-26T17:32:18;101686.09;;;11.15;54.40
40570;BME280;26270;34.428;-119.710;2023-02-26T17:34:47;101679.89;;;11.25;50.24
40570;BME280;26270;34.428;-119.710;2023-02-26T17:37:15;101685.73;;;11.25;49.06
40570;BME280;26270;34.428;-119.710;2023-02-26T17:39:45;101695.79;;;11.21;51.87
40570;BME280;26270;34.428;-119.710;2023-02-26T17:42:15;101696.35;;;11.33;49.78
40570;BME280;26270;34.428;-119.710;2023-02-26T17:44:43;101706.86;;;11.24;50.70
40570;BME280;26270;34.428;-119.710;2023-02-26T17:47:14;101710.59;;;11.31;49.74
40570;BME280;26270;34.428;-119.710;2023-02-26T17:49:44;101713.48;;;11.37;48.09
40570;BME280;26270;34.428;-119.710;2023-02-26T17:52:12;101710.91;;;11.42;48.66
40570;BME280;26270;34.428;-119.710;2023-02-26T17:54:41;101715.03;;;11.45;46.76
40570;BME280;26270;34.428;-119.710;2023-02-26T17:57:15;101713.38;;;11.63;46.47
40570;BME280;26270;34.428;-119.710;2023-02-26T17:59:44;101723.07;;;11.62;46.91
40570;BME280;26270;34.428;-119.710;2023-02-26T18:02:16;101727.16;;;11.65;48.26
40570;BME280;26270;34.428;-119.710;2023-02-26T18:04:45;101723.08;;;11.61;48.69